createdAt,value
2022-10-26T00:00:45.158Z,97532.28
2022-10-26T00:03:11.547Z,97535.63
2022-10-26T00:05:38.113Z,97531.44
2022-10-26T00:08:04.617Z,97539.31
2022-10-26T00:10:31.835Z,97539.41
2022-10-26T00:13:00.840Z,97530.06
2022-10-26T00:15:29.579Z,97530.34
2022-10-26T00:17:55.948Z,97527.44
2022-10-26T00:20:22.324Z,97532.13
2022-10-26T00:22:48.614Z,97531.91
2022-10-26T00:25:15.002Z,97526.06
2022-10-26T00:27:41.310Z,97521.81
2022-10-26T00:30:07.857Z,97518.72
2022-10-26T00:32:34.424Z,97532.56
2022-10-26T00:35:10.516Z,97539.25
2022-10-26T00:37:47.601Z,97548.59
2022-10-26T00:40:14.208Z,97543.41
2022-10-26T00:42:40.511Z,97548.41
2022-10-26T00:45:15.992Z,97542.97
2022-10-26T00:47:49.297Z,97546.31
2022-10-26T00:50:18.332Z,97551.31
2022-10-26T00:52:44.733Z,97550.69
2022-10-26T00:55:11.290Z,97557.91
2022-10-26T00:57:39.206Z,97558.56
2022-10-26T01:00:07.440Z,97562.38
2022-10-26T01:02:33.873Z,97561.00
2022-10-26T01:05:01.422Z,97550.00
2022-10-26T01:07:27.997Z,97556.72
2022-10-26T01:09:54.807Z,97553.44
2022-10-26T01:12:25.783Z,97549.72
2022-10-26T01:14:52.408Z,97537.38
2022-10-26T01:17:33.750Z,97534.31
2022-10-26T01:20:22.752Z,97526.44
2022-10-26T01:23:01.355Z,97526.88
2022-10-26T01:25:27.667Z,97506.06
2022-10-26T01:27:54.072Z,97509.03
2022-10-26T01:30:20.503Z,97508.88
2022-10-26T01:32:52.770Z,97517.50
2022-10-26T01:35:28.242Z,97512.19
2022-10-26T01:38:03.047Z,97521.13
2022-10-26T01:40:48.006Z,97513.53
2022-10-26T01:43:15.555Z,97501.78
2022-10-26T01:45:43.968Z,97499.53
2022-10-26T01:48:13.451Z,97495.38
2022-10-26T01:50:41.718Z,97486.69
2022-10-26T01:53:11.269Z,97490.78
2022-10-26T01:55:37.594Z,97503.00
2022-10-26T01:58:10.795Z,97499.78
2022-10-26T02:00:41.748Z,97497.81
2022-10-26T02:03:30.294Z,97501.97
2022-10-26T02:06:06.548Z,97497.03
2022-10-26T02:08:47.951Z,97485.09
2022-10-26T02:11:43.732Z,97478.97
2022-10-26T02:14:10.027Z,97462.50
2022-10-26T02:16:49.292Z,97470.72
2022-10-26T02:19:15.582Z,97469.75
2022-10-26T02:21:45.005Z,97475.44
2022-10-26T02:24:12.436Z,97475.53
2022-10-26T02:26:39.762Z,97492.41
2022-10-26T02:29:08.808Z,97493.38
2022-10-26T02:31:38.774Z,97499.91
2022-10-26T02:34:06.987Z,97499.91
2022-10-26T02:36:35.924Z,97510.44
2022-10-26T02:39:04.082Z,97503.16
2022-10-26T02:41:30.896Z,97499.59
2022-10-26T02:44:02.158Z,97507.97
2022-10-26T02:46:28.802Z,97510.75
2022-10-26T02:48:56.150Z,97514.22
2022-10-26T02:51:28.556Z,97514.09
2022-10-26T02:53:58.504Z,97518.16
2022-10-26T02:56:29.128Z,97522.53
2022-10-26T02:58:57.973Z,97529.41
2022-10-26T03:01:24.538Z,97532.34
2022-10-26T03:03:51.174Z,97533.06
2022-10-26T03:06:21.890Z,97519.41
2022-10-26T03:08:48.355Z,97528.59
2022-10-26T03:11:14.697Z,97518.38
2022-10-26T03:13:41.017Z,97516.94
2022-10-26T03:16:07.413Z,97524.22
2022-10-26T03:18:33.748Z,97534.63
2022-10-26T03:21:00.221Z,97521.00
2022-10-26T03:23:26.635Z,97519.31
2022-10-26T03:25:59.008Z,97516.81
2022-10-26T03:28:25.518Z,97502.53
2022-10-26T03:30:54.277Z,97500.16
2022-10-26T03:33:24.350Z,97488.16
2022-10-26T03:35:56.940Z,97495.78
2022-10-26T03:38:23.442Z,97480.56
2022-10-26T03:40:49.741Z,97473.56
2022-10-26T03:43:16.106Z,97456.47
2022-10-26T03:45:42.412Z,97464.81
2022-10-26T03:48:08.742Z,97455.84
2022-10-26T03:50:35.124Z,97460.84
2022-10-26T03:53:01.433Z,97462.72
2022-10-26T03:55:27.802Z,97465.22
2022-10-26T03:57:54.101Z,97463.34
2022-10-26T04:00:20.628Z,97471.25
2022-10-26T04:02:53.789Z,97471.25
2022-10-26T04:05:20.131Z,97479.69
2022-10-26T04:07:56.529Z,97492.53
2022-10-26T04:10:22.995Z,97521.09
2022-10-26T04:12:49.568Z,97574.88
2022-10-26T04:15:15.970Z,97584.91
2022-10-26T04:17:42.285Z,97568.63
2022-10-26T04:20:08.925Z,97560.31
2022-10-26T04:22:36.446Z,97556.53
2022-10-26T04:25:06.163Z,97561.75
2022-10-26T04:27:35.390Z,97561.34
2022-10-26T04:30:01.713Z,97559.88
2022-10-26T04:32:28.030Z,97548.81
2022-10-26T04:34:54.538Z,97535.66
2022-10-26T04:37:21.092Z,97526.06
2022-10-26T04:39:47.435Z,97520.63
2022-10-26T04:42:13.736Z,97505.38
2022-10-26T04:44:42.432Z,97509.38
2022-10-26T04:47:11.172Z,97504.72
2022-10-26T04:49:37.490Z,97500.31
2022-10-26T04:52:08.266Z,97504.38
2022-10-26T04:54:34.729Z,97500.00
2022-10-26T04:57:01.051Z,97502.69
2022-10-26T04:59:27.429Z,97500.22
2022-10-26T05:01:53.946Z,97493.22
2022-10-26T05:04:20.555Z,97509.59
2022-10-26T05:06:46.953Z,97503.34
2022-10-26T05:09:13.294Z,97509.88
2022-10-26T05:11:39.663Z,97518.34
2022-10-26T05:14:06.075Z,97530.44
2022-10-26T05:16:32.453Z,97533.34
2022-10-26T05:18:58.819Z,97531.19
2022-10-26T05:21:25.180Z,97531.69
2022-10-26T05:23:55.677Z,97526.22
2022-10-26T05:26:22.957Z,97532.50
2022-10-26T05:28:49.421Z,97527.28
2022-10-26T05:31:15.828Z,97527.00
2022-10-26T05:33:42.327Z,97515.19
2022-10-26T05:36:08.827Z,97518.13
2022-10-26T05:38:35.194Z,97518.72
2022-10-26T05:41:01.742Z,97527.72
2022-10-26T05:43:28.182Z,97532.72
2022-10-26T05:45:54.554Z,97527.78
2022-10-26T05:48:21.305Z,97533.47
2022-10-26T05:50:47.871Z,97534.38
2022-10-26T05:53:14.255Z,97551.41
2022-10-26T05:55:40.856Z,97547.72
2022-10-26T05:58:14.794Z,97542.63
2022-10-26T06:00:57.115Z,97555.66
2022-10-26T06:03:23.569Z,97555.75
2022-10-26T06:05:53.414Z,97555.88
2022-10-26T06:08:20.783Z,97563.16
2022-10-26T06:10:47.354Z,97573.59
2022-10-26T06:13:13.902Z,97579.88
2022-10-26T06:15:48.440Z,97602.59
2022-10-26T06:18:21.145Z,97642.16
2022-10-26T06:21:05.995Z,97682.53
2022-10-26T06:23:46.624Z,97690.91
2022-10-26T06:26:16.407Z,97716.47
2022-10-26T06:28:44.067Z,97707.31
2022-10-26T06:31:13.561Z,97696.66
2022-10-26T06:33:40.428Z,97707.50
2022-10-26T06:36:23.183Z,97688.91
2022-10-26T06:39:06.984Z,97688.72
2022-10-26T06:41:34.613Z,97677.22
2022-10-26T06:44:02.643Z,97663.72
2022-10-26T06:46:41.242Z,97669.13
2022-10-26T06:49:10.628Z,97673.03
2022-10-26T06:51:41.061Z,97670.50
2022-10-26T06:54:27.659Z,97667.69
2022-10-26T06:56:56.453Z,97682.41
2022-10-26T06:59:32.384Z,97682.94
2022-10-26T07:02:01.668Z,97687.63
2022-10-26T07:04:30.719Z,97687.41
2022-10-26T07:06:57.353Z,97684.91
2022-10-26T07:09:23.730Z,97678.41
2022-10-26T07:11:50.108Z,97690.25
2022-10-26T07:14:16.494Z,97697.56
2022-10-26T07:16:42.808Z,97686.97
2022-10-26T07:19:09.132Z,97689.97
2022-10-26T07:21:35.454Z,97685.06
2022-10-26T07:24:01.799Z,97677.59
2022-10-26T07:26:28.144Z,97680.22
2022-10-26T07:28:54.449Z,97683.78
2022-10-26T07:31:20.874Z,97676.22
2022-10-26T07:33:47.201Z,97661.03
2022-10-26T07:36:13.584Z,97672.66
2022-10-26T07:38:39.952Z,97686.00
2022-10-26T07:41:06.459Z,97678.47
2022-10-26T07:43:32.864Z,97692.94
2022-10-26T07:45:59.275Z,97706.31
2022-10-26T07:48:25.611Z,97712.97
2022-10-26T07:50:52.040Z,97707.53
2022-10-26T07:53:18.436Z,97708.75
2022-10-26T07:55:52.556Z,97703.19
2022-10-26T07:58:23.511Z,97696.16
2022-10-26T08:00:50.506Z,97694.09
2022-10-26T08:03:19.729Z,97691.22
2022-10-26T08:05:47.585Z,97698.72
2022-10-26T08:08:14.293Z,97701.25
2022-10-26T08:10:44.823Z,97697.00
2022-10-26T08:13:14.163Z,97697.97
2022-10-26T08:15:40.970Z,97685.84
2022-10-26T08:18:07.671Z,97686.22
2022-10-26T08:20:34.003Z,97687.78
2022-10-26T08:23:01.242Z,97678.25
2022-10-26T08:25:27.687Z,97680.59
2022-10-26T08:27:54.358Z,97692.34
2022-10-26T08:30:20.749Z,97690.06
2022-10-26T08:32:49.804Z,97681.31
2022-10-26T08:35:16.576Z,97679.19
2022-10-26T08:37:42.917Z,97675.50
2022-10-26T08:40:15.116Z,97683.34
2022-10-26T08:42:47.238Z,97671.91
2022-10-26T08:45:27.574Z,97673.44
2022-10-26T08:47:58.973Z,97676.47
2022-10-26T08:50:31.814Z,97673.69
2022-10-26T08:53:03.836Z,97681.75
2022-10-26T08:55:53.239Z,97682.91
2022-10-26T08:58:22.542Z,97681.69
2022-10-26T09:00:50.100Z,97676.63
2022-10-26T09:03:17.252Z,97681.88
2022-10-26T09:06:05.577Z,97678.44
2022-10-26T09:08:52.158Z,97671.56
2022-10-26T09:11:27.566Z,97674.66
2022-10-26T09:13:56.372Z,97672.47
2022-10-26T09:16:25.310Z,97678.28
2022-10-26T09:18:58.970Z,97688.28
2022-10-26T09:21:34.424Z,97689.66
2022-10-26T09:24:28.446Z,97691.59
2022-10-26T09:26:56.373Z,97696.28
2022-10-26T09:29:26.105Z,97690.06
2022-10-26T09:31:53.837Z,97697.00
2022-10-26T09:34:26.297Z,97686.34
2022-10-26T09:36:58.632Z,97701.03
2022-10-26T09:39:42.191Z,97704.91
2022-10-26T09:42:31.923Z,97701.06
2022-10-26T09:45:00.897Z,97709.38
2022-10-26T09:47:30.291Z,97704.66
2022-10-26T09:50:01.349Z,97713.78
2022-10-26T09:52:28.899Z,97723.31
2022-10-26T09:54:57.873Z,97723.66
2022-10-26T09:57:24.622Z,97721.72
2022-10-26T09:59:55.688Z,97725.03
2022-10-26T10:02:35.222Z,97726.44
2022-10-26T10:05:01.749Z,97720.63
2022-10-26T10:07:28.242Z,97720.22
2022-10-26T10:10:06.631Z,97728.00
2022-10-26T10:12:33.020Z,97720.00
2022-10-26T10:14:59.508Z,97722.34
2022-10-26T10:17:26.425Z,97719.03
2022-10-26T10:19:53.067Z,97726.38
2022-10-26T10:22:22.398Z,97725.81
2022-10-26T10:24:54.940Z,97725.09
2022-10-26T10:27:21.328Z,97723.81
2022-10-26T10:29:51.735Z,97735.34
2022-10-26T10:32:22.907Z,97722.16
2022-10-26T10:34:50.278Z,97725.88
2022-10-26T10:37:30.596Z,97732.53
2022-10-26T10:40:04.873Z,97728.34
2022-10-26T10:42:32.957Z,97736.69
2022-10-26T10:44:59.744Z,97733.00
2022-10-26T10:47:28.515Z,97733.47
2022-10-26T10:49:57.472Z,97738.63
2022-10-26T10:52:29.150Z,97743.22
2022-10-26T10:55:03.062Z,97746.88
2022-10-26T10:57:39.591Z,97750.50
2022-10-26T11:00:09.347Z,97741.47
2022-10-26T11:02:54.438Z,97745.50
2022-10-26T11:05:23.402Z,97747.75
2022-10-26T11:07:59.925Z,97746.50
2022-10-26T11:10:27.940Z,97744.47
2022-10-26T11:12:57.033Z,97739.53
2022-10-26T11:15:26.145Z,97736.88
2022-10-26T11:17:52.611Z,97735.06
2022-10-26T11:20:22.205Z,97739.56
2022-10-26T11:22:52.237Z,97734.06
2022-10-26T11:25:28.228Z,97734.81
2022-10-26T11:27:57.730Z,97737.97
2022-10-26T11:30:27.577Z,97738.19
2022-10-26T11:33:00.480Z,97740.06
2022-10-26T11:35:40.031Z,97740.91
2022-10-26T11:38:06.331Z,97743.03
2022-10-26T11:40:35.711Z,97747.50
2022-10-26T11:43:09.946Z,97755.97
2022-10-26T11:45:39.727Z,97759.75
2022-10-26T11:48:14.964Z,97766.94
2022-10-26T11:50:44.507Z,97757.63
2022-10-26T11:53:10.917Z,97765.56
2022-10-26T11:55:38.063Z,97770.81
2022-10-26T11:58:04.784Z,97768.19
2022-10-26T12:00:32.847Z,97765.16
2022-10-26T12:03:06.798Z,97762.63
2022-10-26T12:05:33.106Z,97763.75
2022-10-26T12:08:04.129Z,97768.63
2022-10-26T12:10:32.454Z,97767.09
2022-10-26T12:13:01.839Z,97763.47
2022-10-26T12:16:01.729Z,97754.84
2022-10-26T12:18:43.234Z,97766.66
2022-10-26T12:21:13.397Z,97769.41
2022-10-26T12:23:53.252Z,97770.22
2022-10-26T12:26:37.553Z,97774.69
2022-10-26T12:29:03.858Z,97781.34
2022-10-26T12:31:36.268Z,97769.84
2022-10-26T12:34:22.864Z,97771.63
2022-10-26T12:36:55.255Z,97773.81
2022-10-26T12:39:34.959Z,97772.78
2022-10-26T12:42:10.183Z,97776.50
2022-10-26T12:44:42.667Z,97770.75
2022-10-26T12:47:09.930Z,97775.44
2022-10-26T12:49:55.296Z,97779.44
2022-10-26T12:52:23.021Z,97777.88
2022-10-26T12:55:08.137Z,97775.47
2022-10-26T12:57:44.297Z,97782.16
2022-10-26T13:00:18.385Z,97775.81
2022-10-26T13:02:44.871Z,97787.38
2022-10-26T13:05:20.372Z,97784.72
2022-10-26T13:07:46.866Z,97780.16
2022-10-26T13:10:13.199Z,97776.00
2022-10-26T13:12:42.598Z,97781.56
2022-10-26T13:15:20.322Z,97780.63
2022-10-26T13:18:13.169Z,97786.47
2022-10-26T13:20:52.862Z,97790.63
2022-10-26T13:23:24.230Z,97790.81
2022-10-26T13:26:04.951Z,97787.19
2022-10-26T13:28:31.279Z,97796.88
2022-10-26T13:30:59.810Z,97802.16
2022-10-26T13:33:34.091Z,97805.56
2022-10-26T13:36:02.518Z,97800.84
2022-10-26T13:38:34.394Z,97813.34
2022-10-26T13:41:10.870Z,97806.13
2022-10-26T13:43:37.552Z,97799.56
2022-10-26T13:46:04.385Z,97807.00
2022-10-26T13:48:37.922Z,97805.50
2022-10-26T13:51:20.964Z,97808.94
2022-10-26T13:53:51.816Z,97808.25
2022-10-26T13:56:30.660Z,97808.25
2022-10-26T13:59:05.400Z,97809.53
2022-10-26T14:01:31.948Z,97807.44
2022-10-26T14:03:58.408Z,97809.41
2022-10-26T14:06:44.959Z,97811.66
2022-10-26T14:09:15.746Z,97819.59
2022-10-26T14:11:48.226Z,97818.91
2022-10-26T14:14:17.202Z,97812.94
2022-10-26T14:16:46.559Z,97816.56
2022-10-26T14:19:25.911Z,97815.44
2022-10-26T14:21:53.209Z,97821.53
2022-10-26T14:24:31.497Z,97820.97
2022-10-26T14:27:02.257Z,97818.97
2022-10-26T14:29:34.456Z,97815.06
2022-10-26T14:32:00.775Z,97826.47
2022-10-26T14:34:29.978Z,97821.34
2022-10-26T14:37:01.948Z,97827.47
2022-10-26T14:39:37.115Z,97829.38
2022-10-26T14:42:10.727Z,97831.88
2022-10-26T14:44:37.490Z,97827.69
2022-10-26T14:47:03.885Z,97825.50
2022-10-26T14:49:30.248Z,97825.38
2022-10-26T14:51:58.211Z,97832.59
2022-10-26T14:54:26.171Z,97838.28
2022-10-26T14:56:53.078Z,97839.53
2022-10-26T14:59:22.487Z,97839.38
2022-10-26T15:01:53.673Z,97844.34
2022-10-26T15:04:26.319Z,97845.63
2022-10-26T15:06:52.662Z,97850.47
2022-10-26T15:09:29.796Z,97849.53
2022-10-26T15:11:56.206Z,97861.56
2022-10-26T15:14:22.590Z,97860.75
2022-10-26T15:16:54.243Z,97858.25
2022-10-26T15:19:23.782Z,97858.25
2022-10-26T15:21:51.032Z,97855.22
2022-10-26T15:24:20.343Z,97861.72
2022-10-26T15:26:46.906Z,97866.03
2022-10-26T15:29:32.071Z,97861.44
2022-10-26T15:32:02.225Z,97864.22
2022-10-26T15:34:28.654Z,97868.25
2022-10-26T15:36:55.090Z,97867.44
2022-10-26T15:39:22.420Z,97875.47
2022-10-26T15:41:49.280Z,97872.81
2022-10-26T15:44:19.290Z,97871.00
2022-10-26T15:46:46.077Z,97877.09
2022-10-26T15:49:17.113Z,97870.25
2022-10-26T15:51:44.847Z,97880.25
2022-10-26T15:54:11.397Z,97882.31
2022-10-26T15:56:39.716Z,97876.06
2022-10-26T15:59:11.834Z,97890.44
2022-10-26T16:01:38.295Z,97885.09
2022-10-26T16:04:04.724Z,97890.25
2022-10-26T16:06:32.681Z,97891.69
2022-10-26T16:09:00.630Z,97890.97
2022-10-26T16:11:27.263Z,97900.38
2022-10-26T16:13:55.202Z,97897.56
2022-10-26T16:16:23.447Z,97903.50
2022-10-26T16:19:06.031Z,97904.19
2022-10-26T16:21:41.769Z,97906.63
2022-10-26T16:24:08.304Z,97908.88
2022-10-26T16:26:34.607Z,97915.16
2022-10-26T16:29:03.431Z,97916.84
2022-10-26T16:31:29.728Z,97915.31
2022-10-26T16:34:00.199Z,97918.66
2022-10-26T16:36:29.771Z,97922.50
2022-10-26T16:38:56.163Z,97924.81
2022-10-26T16:41:22.581Z,97924.72
2022-10-26T16:46:18.307Z,97931.78
2022-10-26T16:48:45.710Z,97929.84
2022-10-26T16:51:16.401Z,97929.44
2022-10-26T16:53:42.881Z,97929.22
2022-10-26T16:56:10.537Z,97940.50
2022-10-26T16:58:37.621Z,97935.84
2022-10-26T17:01:07.023Z,97941.00
2022-10-26T17:03:33.530Z,97948.09
2022-10-26T17:06:04.337Z,97946.56
2022-10-26T17:08:31.621Z,97948.28
2022-10-26T17:11:05.649Z,97950.09
2022-10-26T17:13:31.987Z,97955.78
2022-10-26T17:16:05.745Z,97955.06
2022-10-26T17:18:34.746Z,97960.00
2022-10-26T17:21:01.262Z,97973.25
2022-10-26T17:23:27.733Z,97969.34
2022-10-26T17:25:54.157Z,97968.53
2022-10-26T17:28:20.640Z,97975.69
2022-10-26T17:30:47.046Z,97981.19
2022-10-26T17:33:15.920Z,97988.34
2022-10-26T17:35:42.283Z,97981.78
2022-10-26T17:38:08.664Z,97979.78
2022-10-26T17:40:37.398Z,97994.09
2022-10-26T17:43:03.783Z,97997.19
2022-10-26T17:45:30.229Z,97997.41
2022-10-26T17:47:56.598Z,97996.13
2022-10-26T17:50:22.974Z,97997.19
2022-10-26T17:52:49.344Z,98000.16
2022-10-26T17:55:15.756Z,98009.44
2022-10-26T17:57:42.235Z,98010.78
2022-10-26T18:00:08.908Z,98019.56
2022-10-26T18:02:38.092Z,98021.72
2022-10-26T18:05:06.885Z,98027.91
2022-10-26T18:07:34.359Z,98028.63
2022-10-26T18:10:19.471Z,98035.50
2022-10-26T18:12:47.167Z,98031.94
2022-10-26T18:15:15.666Z,98038.09
2022-10-26T18:17:42.738Z,98041.66
2022-10-26T18:20:09.319Z,98046.88
2022-10-26T18:22:35.687Z,98044.06
2022-10-26T18:25:02.050Z,98045.19
2022-10-26T18:27:28.398Z,98047.44
2022-10-26T18:29:54.788Z,98053.41
2022-10-26T18:32:21.409Z,98044.72
2022-10-26T18:34:47.945Z,98053.03
2022-10-26T18:37:14.368Z,98052.31
2022-10-26T18:39:40.778Z,98052.19
2022-10-26T18:42:07.153Z,98054.56
2022-10-26T18:44:33.627Z,98055.28
2022-10-26T18:47:00.058Z,98059.09
2022-10-26T18:49:26.671Z,98060.22
2022-10-26T18:51:53.132Z,98060.44
2022-10-26T18:54:19.513Z,98067.56
2022-10-26T18:56:48.390Z,98067.25
2022-10-26T18:59:14.722Z,98067.66
2022-10-26T19:01:42.274Z,98064.88
2022-10-26T19:04:09.760Z,98067.66
2022-10-26T19:06:40.930Z,98064.72
2022-10-26T19:09:07.901Z,98073.78
2022-10-26T19:11:34.413Z,98076.06
2022-10-26T19:14:00.849Z,98079.53
2022-10-26T19:16:46.342Z,98072.94
2022-10-26T19:19:13.680Z,98082.59
2022-10-26T19:21:40.139Z,98080.06
2022-10-26T19:24:10.796Z,98083.00
2022-10-26T19:26:39.984Z,98090.63
2022-10-26T19:29:13.797Z,98083.16
2022-10-26T19:31:40.569Z,98097.53
2022-10-26T19:34:07.046Z,98100.41
2022-10-26T19:36:33.883Z,98098.72
2022-10-26T19:39:00.500Z,98104.44
2022-10-26T19:41:28.278Z,98106.19
2022-10-26T19:43:55.126Z,98105.69
2022-10-26T19:46:23.157Z,98113.66
2022-10-26T19:48:50.601Z,98123.25
2022-10-26T19:51:17.418Z,98121.47
2022-10-26T19:53:43.860Z,98123.13
2022-10-26T19:56:13.282Z,98120.16
2022-10-26T19:58:40.851Z,98126.16
2022-10-26T20:01:07.705Z,98123.25
2022-10-26T20:03:34.405Z,98128.38
2022-10-26T20:06:02.095Z,98126.72
2022-10-26T20:08:28.947Z,98129.44
2022-10-26T20:10:56.377Z,98128.81
2022-10-26T20:13:23.259Z,98132.00
2022-10-26T20:15:50.982Z,98130.00
2022-10-26T20:18:17.586Z,98130.50
2022-10-26T20:20:43.921Z,98133.03
2022-10-26T20:23:10.579Z,98136.97
2022-10-26T20:25:37.742Z,98139.91
2022-10-26T20:28:04.740Z,98140.16
2022-10-26T20:30:32.130Z,98139.63
2022-10-26T20:32:59.173Z,98147.72
2022-10-26T20:35:25.849Z,98140.34
2022-10-26T20:37:53.235Z,98144.75
2022-10-26T20:40:21.631Z,98145.16
2022-10-26T20:45:30.461Z,98146.84
2022-10-26T20:47:57.727Z,98146.31
2022-10-26T20:50:24.999Z,98147.47
2022-10-26T20:53:00.929Z,98154.19
2022-10-26T20:55:40.377Z,98149.38
2022-10-26T20:58:14.076Z,98146.56
2022-10-26T21:00:46.946Z,98147.81
2022-10-26T21:03:13.375Z,98141.84
2022-10-26T21:05:44.240Z,98142.59
2022-10-26T21:08:10.574Z,98152.56
2022-10-26T21:10:36.942Z,98149.31
2022-10-26T21:13:03.298Z,98153.09
2022-10-26T21:15:29.653Z,98148.81
2022-10-26T21:17:56.181Z,98150.47
2022-10-26T21:20:22.604Z,98155.22
2022-10-26T21:22:48.946Z,98155.88
2022-10-26T21:25:17.783Z,98156.38
2022-10-26T21:27:46.611Z,98162.66
2022-10-26T21:30:13.316Z,98158.81
2022-10-26T21:32:39.750Z,98160.03
2022-10-26T21:35:06.261Z,98164.78
2022-10-26T21:37:32.616Z,98166.75
2022-10-26T21:39:58.992Z,98166.25
2022-10-26T21:42:28.216Z,98167.72
2022-10-26T21:44:54.561Z,98169.38
2022-10-26T21:47:20.930Z,98167.06
2022-10-26T21:49:47.243Z,98176.59
2022-10-26T21:52:13.618Z,98172.31
2022-10-26T21:54:39.933Z,98169.78
2022-10-26T21:57:06.370Z,98169.25
2022-10-26T21:59:32.733Z,98173.69
2022-10-26T22:01:59.243Z,98181.03
2022-10-26T22:04:25.790Z,98182.16
2022-10-26T22:06:52.137Z,98178.72
2022-10-26T22:09:18.626Z,98180.16
2022-10-26T22:11:44.967Z,98186.84
2022-10-26T22:14:12.438Z,98185.19
2022-10-26T22:16:38.794Z,98182.03
2022-10-26T22:19:06.767Z,98182.31
2022-10-26T22:21:35.127Z,98177.19
2022-10-26T22:24:01.745Z,98171.56
2022-10-26T22:26:28.364Z,98173.50
2022-10-26T22:28:56.092Z,98180.28
2022-10-26T22:31:27.049Z,98183.34
2022-10-26T22:34:35.073Z,98182.81
2022-10-26T22:37:01.587Z,98185.09
2022-10-26T22:39:27.961Z,98182.34
2022-10-26T22:41:54.283Z,98181.63
2022-10-26T22:44:20.671Z,98188.41
2022-10-26T22:46:47.006Z,98170.63
2022-10-26T22:49:13.465Z,98174.34
2022-10-26T22:51:42.258Z,98170.66
2022-10-26T22:54:08.586Z,98185.22
2022-10-26T22:56:36.331Z,98174.88
2022-10-26T22:59:03.273Z,98181.22
2022-10-26T23:01:31.385Z,98180.44
2022-10-26T23:03:58.455Z,98183.56
2022-10-26T23:06:27.015Z,98184.75
2022-10-26T23:08:53.724Z,98186.63
2022-10-26T23:11:21.135Z,98179.66
2022-10-26T23:13:47.661Z,98185.59
2022-10-26T23:16:15.551Z,98180.19
2022-10-26T23:18:42.216Z,98180.88
2022-10-26T23:21:09.363Z,98184.41
2022-10-26T23:23:36.005Z,98185.56
2022-10-26T23:26:03.193Z,98191.53
2022-10-26T23:28:29.627Z,98191.78
2022-10-26T23:30:55.987Z,98193.84
2022-10-26T23:33:22.450Z,98192.97
2022-10-26T23:35:49.957Z,98194.88
2022-10-26T23:38:16.286Z,98202.16
2022-10-26T23:40:48.586Z,98197.84
2022-10-26T23:43:15.087Z,98198.31
2022-10-26T23:45:41.556Z,98201.88
2022-10-26T23:48:07.911Z,98201.03
2022-10-26T23:50:34.383Z,98193.00
2022-10-26T23:53:00.701Z,98197.03
2022-10-26T23:55:27.612Z,98201.13
2022-10-26T23:57:53.937Z,98206.91
